This is the latest recevied weather packets stored in our database for station/object KI2K. If no packets are shown the sender has not sent any weather packets the latest 10 day(s).
| Time | Temp. | Humidity | Pressure | Rain* | Wind** | Luminosity | Snow |
|---|---|---|---|---|---|---|---|
| 1777654743 | 10.56° C | 69% | 1015.3 hPa | 0 mm | - | 200 W/m² | - |
| 1777654440 | 10.56° C | 70% | 1015.4 hPa | 0 mm | - | 294 W/m² | - |
| 1777654137 | 10° C | 74% | 1015.4 hPa | 0 mm | - | 765 W/m² | - |
| 1777653835 | 9.44° C | 76% | 1015.5 hPa | 0 mm | - | 165 W/m² | - |
| 1777653531 | 9.44° C | 76% | 1015.4 hPa | 0 mm | - | 166 W/m² | - |
| 1777653227 | 10° C | 75% | 1015.4 hPa | 0 mm | - | 269 W/m² | - |
| 1777652924 | 10° C | 75% | 1015.3 hPa | 0 mm | - | 545 W/m² | - |
| 1777652621 | 10.56° C | 73% | 1015.2 hPa | 0 mm | - | 349 W/m² | - |
| 1777652318 | 10° C | 74% | 1015.1 hPa | 0 mm | - | 862 W/m² | - |
| 1777652014 | 10.56° C | 76% | 1015.2 hPa | 0 mm | - | 883 W/m² | - |
| 1777651711 | 10° C | 78% | 1015.4 hPa | 0 mm | - | 754 W/m² | - |
| 1777651408 | 9.44° C | 78% | 1015.3 hPa | 0 mm | - | 186 W/m² | - |
| 1777651106 | 8.89° C | 79% | 1015 hPa | 0 mm | - | 252 W/m² | - |
| 1777650802 | 8.89° C | 77% | 1015.3 hPa | 0 mm | - | 588 W/m² | - |
| 1777650499 | 8.89° C | 78% | 1015 hPa | 0 mm | - | 159 W/m² | - |
| 1777650196 | 8.89° C | 78% | 1015 hPa | 0 mm | - | 917 W/m² | - |
| 1777649894 | 8.33° C | 81% | 1015.1 hPa | 0 mm | - | 321 W/m² | - |
| 1777649591 | 7.78° C | 82% | 1015.2 hPa | 0 mm | - | 249 W/m² | - |
| 1777649287 | 7.78° C | 81% | 1014.9 hPa | 0 mm | - | 110 W/m² | - |
| 1777648984 | 8.33° C | 80% | 1014.9 hPa | 0 mm | - | 123 W/m² | - |
| 1777648682 | 7.78° C | 82% | 1014.8 hPa | 0 mm | - | 304 W/m² | - |
| 1777648377 | 7.78° C | 83% | 1014.8 hPa | 0 mm | - | 216 W/m² | - |
| 1777648074 | 7.78° C | 83% | 1014.8 hPa | 0 mm | - | 90 W/m² | - |
| 1777647770 | 7.78° C | 83% | 1014.7 hPa | 0 mm | - | 97 W/m² | - |
| 1777647466 | 7.78° C | 81% | 1014.6 hPa | 0 mm | - | 143 W/m² | - |
* Rain latest hour (hover to see other rain measurements)
** Current wind speed in m/s (hover to see current wind gust speed)